createdAt,value
2018-11-14T00:00:27.877Z,23.30
2018-11-14T00:02:57.243Z,23.40
2018-11-14T00:05:26.330Z,17.80
2018-11-14T00:07:55.604Z,16.73
2018-11-14T00:10:24.448Z,17.97
2018-11-14T00:12:53.754Z,14.37
2018-11-14T00:15:24.193Z,19.50
2018-11-14T00:17:54.014Z,18.83
2018-11-14T00:20:23.518Z,21.17
2018-11-14T00:22:52.932Z,14.37
2018-11-14T00:25:21.869Z,16.37
2018-11-14T00:27:50.958Z,12.63
2018-11-14T00:30:22.591Z,13.77
2018-11-14T00:32:51.477Z,14.30
2018-11-14T00:35:20.919Z,14.43
2018-11-14T00:37:50.135Z,17.17
2018-11-14T00:40:20.103Z,15.03
2018-11-14T00:42:49.502Z,15.97
2018-11-14T00:45:19.977Z,18.53
2018-11-14T00:47:50.171Z,13.77
2018-11-14T00:50:20.146Z,16.97
2018-11-14T00:52:49.070Z,14.93
2018-11-14T00:55:20.325Z,17.00
2018-11-14T00:57:50.319Z,11.30
2018-11-14T01:00:21.671Z,12.87
2018-11-14T01:02:51.896Z,13.87
2018-11-14T01:05:20.985Z,9.00
2018-11-14T01:07:50.598Z,7.93
2018-11-14T01:10:20.868Z,9.83
2018-11-14T01:12:51.868Z,12.90
2018-11-14T01:15:22.271Z,13.73
2018-11-14T01:17:51.351Z,11.63
2018-11-14T01:20:21.991Z,7.70
2018-11-14T01:22:50.882Z,10.77
2018-11-14T01:25:19.906Z,10.63
2018-11-14T01:27:48.913Z,11.33
2018-11-14T01:30:21.034Z,11.77
2018-11-14T01:32:50.157Z,8.87
2018-11-14T01:35:19.562Z,10.73
2018-11-14T01:37:48.387Z,11.63
2018-11-14T01:40:18.983Z,12.03
2018-11-14T01:42:48.837Z,12.40
2018-11-14T01:45:17.766Z,11.47
2018-11-14T01:47:46.617Z,13.17
2018-11-14T01:50:15.465Z,7.03
2018-11-14T01:52:48.864Z,9.00
2018-11-14T01:55:19.953Z,11.97
2018-11-14T01:57:48.734Z,13.53
2018-11-14T02:00:21.880Z,8.67
2018-11-14T02:02:50.664Z,9.07
2018-11-14T02:05:19.579Z,12.73
2018-11-14T02:07:49.117Z,9.80
2018-11-14T02:10:23.887Z,9.53
2018-11-14T02:12:53.745Z,9.60
2018-11-14T02:15:24.465Z,10.47
2018-11-14T02:17:58.647Z,12.40
2018-11-14T02:20:28.406Z,9.17
2018-11-14T02:22:57.638Z,8.83
2018-11-14T02:25:27.071Z,14.50
2018-11-14T02:27:56.778Z,15.53
2018-11-14T02:30:30.139Z,17.23
2018-11-14T02:32:59.362Z,11.90
2018-11-14T02:35:29.329Z,16.33
2018-11-14T02:37:58.228Z,13.67
2018-11-14T02:40:28.030Z,13.20
2018-11-14T02:42:56.781Z,10.90
2018-11-14T02:45:27.541Z,15.43
2018-11-14T02:47:56.965Z,9.07
2018-11-14T02:50:25.789Z,13.03
2018-11-14T02:52:55.054Z,12.50
2018-11-14T02:55:24.834Z,12.17
2018-11-14T02:57:53.585Z,13.67
2018-11-14T03:00:23.315Z,11.47
2018-11-14T03:02:56.664Z,12.67
2018-11-14T03:05:26.141Z,16.83
2018-11-14T03:07:55.340Z,13.70
2018-11-14T03:10:24.130Z,12.73
2018-11-14T03:12:53.020Z,14.93
2018-11-14T03:15:23.057Z,14.53
2018-11-14T03:17:51.875Z,13.40
2018-11-14T03:20:21.845Z,14.67
2018-11-14T03:22:51.074Z,14.83
2018-11-14T03:25:20.385Z,14.13
2018-11-14T03:27:50.165Z,12.80
2018-11-14T03:30:19.780Z,11.13
2018-11-14T03:32:48.612Z,11.37
2018-11-14T03:35:17.988Z,11.23
2018-11-14T03:37:47.356Z,15.40
2018-11-14T03:40:17.115Z,9.90
2018-11-14T03:42:45.882Z,13.13
2018-11-14T03:45:15.380Z,12.00
2018-11-14T03:47:44.045Z,12.40
2018-11-14T03:50:12.885Z,11.27
2018-11-14T03:52:41.716Z,13.00
2018-11-14T03:55:10.749Z,16.23
2018-11-14T03:57:39.551Z,11.00
2018-11-14T04:00:11.448Z,13.40
2018-11-14T04:02:40.115Z,18.77
2018-11-14T04:05:09.288Z,14.90
2018-11-14T04:07:38.337Z,15.20
2018-11-14T04:10:08.666Z,12.70
2018-11-14T04:12:44.884Z,12.93
2018-11-14T04:15:14.419Z,11.90
2018-11-14T04:17:43.184Z,13.80
2018-11-14T04:20:14.426Z,12.50
2018-11-14T04:22:43.403Z,11.13
2018-11-14T04:25:14.141Z,16.47
2018-11-14T04:27:44.239Z,17.20
2018-11-14T04:30:20.055Z,18.53
2018-11-14T04:32:48.764Z,13.57
2018-11-14T04:35:22.262Z,15.03
2018-11-14T04:37:51.154Z,14.17
2018-11-14T04:40:22.359Z,19.17
2018-11-14T04:42:51.115Z,14.67
2018-11-14T04:45:24.926Z,16.27
2018-11-14T04:47:53.797Z,16.83
2018-11-14T04:50:24.315Z,15.47
2018-11-14T04:52:53.420Z,14.90
2018-11-14T04:55:23.254Z,14.93
2018-11-14T04:57:57.315Z,12.27
2018-11-14T05:00:26.912Z,16.33
2018-11-14T05:02:56.342Z,17.50
2018-11-14T05:05:25.485Z,17.23
2018-11-14T05:07:54.362Z,16.07
2018-11-14T05:10:25.521Z,19.17
2018-11-14T05:12:54.397Z,15.83
2018-11-14T05:15:24.617Z,22.83
2018-11-14T05:17:54.592Z,18.20
2018-11-14T05:20:24.084Z,12.63
2018-11-14T05:22:53.045Z,17.70
2018-11-14T05:25:23.094Z,16.67
2018-11-14T05:27:52.134Z,15.67
2018-11-14T05:30:22.456Z,12.93
2018-11-14T05:32:52.683Z,15.37
2018-11-14T05:35:23.373Z,16.37
2018-11-14T05:37:52.608Z,13.13
2018-11-14T05:40:22.507Z,19.17
2018-11-14T05:42:51.945Z,19.13
2018-11-14T05:45:24.961Z,18.40
2018-11-14T05:47:53.809Z,19.33
2018-11-14T05:50:23.681Z,15.23
2018-11-14T05:52:54.206Z,18.00
2018-11-14T05:55:24.592Z,14.47
2018-11-14T05:57:53.445Z,15.83
2018-11-14T06:00:27.954Z,15.33
2018-11-14T06:03:02.624Z,14.37
2018-11-14T06:05:34.947Z,14.93
2018-11-14T06:08:04.672Z,14.77
2018-11-14T06:10:33.344Z,11.33
2018-11-14T06:13:02.068Z,15.67
2018-11-14T06:15:30.801Z,12.23
2018-11-14T06:17:59.593Z,15.50
2018-11-14T06:20:28.288Z,14.30
2018-11-14T06:22:57.709Z,15.67
2018-11-14T06:25:36.897Z,14.70
2018-11-14T06:28:06.824Z,21.67
2018-11-14T06:30:36.409Z,13.77
2018-11-14T06:33:06.566Z,16.50
2018-11-14T06:35:35.272Z,14.00
2018-11-14T06:38:05.779Z,16.13
2018-11-14T06:40:34.658Z,18.67
2018-11-14T06:43:08.685Z,21.07
2018-11-14T06:45:37.984Z,18.17
2018-11-14T06:48:07.702Z,19.03
2018-11-14T06:50:36.502Z,14.33
2018-11-14T06:53:06.576Z,13.77
2018-11-14T06:55:35.355Z,17.23
2018-11-14T06:58:04.503Z,13.73
2018-11-14T07:00:34.992Z,16.77
2018-11-14T07:03:05.150Z,22.37
2018-11-14T07:05:34.079Z,18.23
2018-11-14T07:08:02.822Z,19.53
2018-11-14T07:10:33.930Z,21.07
2018-11-14T07:13:09.264Z,27.17
2018-11-14T07:15:38.775Z,23.80
2018-11-14T07:18:08.298Z,25.63
2018-11-14T07:20:39.399Z,21.30
2018-11-14T07:23:08.351Z,18.90
2018-11-14T07:25:39.278Z,16.77
2018-11-14T07:28:08.105Z,18.73
2018-11-14T07:30:37.523Z,21.93
2018-11-14T07:33:07.958Z,28.10
2018-11-14T07:35:46.471Z,18.83
2018-11-14T07:38:49.353Z,19.80
2018-11-14T07:41:22.100Z,17.17
2018-11-14T07:43:51.116Z,23.33
2018-11-14T07:46:20.353Z,20.63
2018-11-14T07:48:50.889Z,21.00
2018-11-14T07:51:20.139Z,19.80
2018-11-14T07:53:49.057Z,18.20
2018-11-14T07:56:18.774Z,15.80
2018-11-14T07:58:47.663Z,22.10
2018-11-14T08:01:16.964Z,19.63
2018-11-14T08:03:46.083Z,16.13
2018-11-14T08:06:16.152Z,18.33
2018-11-14T08:08:45.523Z,19.93
2018-11-14T08:11:14.295Z,10.70
2018-11-14T08:13:44.385Z,21.67
2018-11-14T08:16:16.068Z,18.90
2018-11-14T08:18:48.806Z,21.73
2018-11-14T08:21:18.047Z,16.23
2018-11-14T08:23:46.843Z,17.63
2018-11-14T08:26:16.672Z,14.23
2018-11-14T08:28:45.446Z,17.20
2018-11-14T08:31:14.498Z,19.23
2018-11-14T08:33:43.365Z,20.03
2018-11-14T08:36:12.790Z,21.63
2018-11-14T08:38:44.601Z,14.07
2018-11-14T08:41:27.962Z,14.07
2018-11-14T08:43:56.953Z,14.33
2018-11-14T08:46:25.872Z,13.17
2018-11-14T08:48:54.662Z,15.03
2018-11-14T08:51:23.574Z,15.13
2018-11-14T08:53:52.412Z,16.93
2018-11-14T08:56:22.526Z,16.13
2018-11-14T08:58:51.306Z,13.93
2018-11-14T09:01:19.971Z,13.63
2018-11-14T09:03:48.712Z,19.37
2018-11-14T09:06:17.552Z,12.47
2018-11-14T09:08:47.379Z,13.67
2018-11-14T09:11:16.897Z,15.07
2018-11-14T09:13:46.633Z,12.90
2018-11-14T09:16:15.721Z,15.27
2018-11-14T09:18:45.835Z,16.83
2018-11-14T09:21:14.733Z,17.23
2018-11-14T09:23:43.883Z,13.50
2018-11-14T09:26:12.849Z,16.63
2018-11-14T09:28:41.651Z,13.37
2018-11-14T09:31:10.403Z,14.13
2018-11-14T09:33:39.148Z,13.90
2018-11-14T09:36:07.866Z,16.27
2018-11-14T09:38:37.179Z,14.23
2018-11-14T09:41:06.100Z,13.37
2018-11-14T09:43:34.889Z,13.10
2018-11-14T09:46:03.669Z,10.67
2018-11-14T09:48:32.452Z,12.57
2018-11-14T09:51:01.149Z,11.80
2018-11-14T09:53:30.024Z,12.37
2018-11-14T09:55:58.790Z,14.57
2018-11-14T09:58:27.535Z,14.33
2018-11-14T10:00:56.335Z,11.57
2018-11-14T10:03:26.095Z,15.23
2018-11-14T10:05:54.958Z,15.80
2018-11-14T10:08:23.776Z,14.07
2018-11-14T10:10:52.581Z,12.23
2018-11-14T10:13:22.176Z,10.77
2018-11-14T10:15:51.079Z,11.57
2018-11-14T10:18:20.035Z,11.07
2018-11-14T10:20:48.907Z,12.63
2018-11-14T10:23:17.817Z,11.90
2018-11-14T10:25:46.679Z,12.37
2018-11-14T10:28:15.414Z,10.27
2018-11-14T10:30:44.209Z,13.13
2018-11-14T10:33:13.107Z,13.50
2018-11-14T10:35:41.965Z,11.93
2018-11-14T10:38:10.809Z,9.43
2018-11-14T10:40:39.558Z,13.63
2018-11-14T10:43:08.994Z,11.13
2018-11-14T10:45:37.674Z,7.70
2018-11-14T10:48:06.552Z,8.23
2018-11-14T10:50:35.402Z,7.57
2018-11-14T10:53:04.633Z,8.37
2018-11-14T10:55:33.342Z,10.43
2018-11-14T10:58:02.099Z,8.27
2018-11-14T11:00:37.202Z,10.57
2018-11-14T11:03:11.350Z,9.83
2018-11-14T11:05:45.377Z,6.53
2018-11-14T11:08:20.120Z,8.77
2018-11-14T11:10:54.044Z,7.60
2018-11-14T11:13:28.017Z,9.23
2018-11-14T11:16:01.984Z,7.40
2018-11-14T11:18:35.665Z,8.30
2018-11-14T11:21:04.372Z,8.00
2018-11-14T11:23:33.210Z,8.80
2018-11-14T11:26:02.677Z,9.20
2018-11-14T11:28:31.587Z,7.13
2018-11-14T11:31:00.376Z,7.87
2018-11-14T11:33:29.503Z,6.93
2018-11-14T11:35:58.339Z,6.73
2018-11-14T11:38:27.264Z,8.50
2018-11-14T11:40:56.066Z,6.17
2018-11-14T11:43:25.117Z,8.80
2018-11-14T11:45:53.979Z,10.97
2018-11-14T11:48:22.884Z,7.87
2018-11-14T11:50:51.750Z,8.83
2018-11-14T11:53:20.737Z,6.40
2018-11-14T11:55:49.576Z,9.27
2018-11-14T11:58:18.524Z,8.03
2018-11-14T12:00:47.371Z,9.53
2018-11-14T12:03:16.142Z,8.60
2018-11-14T12:05:44.989Z,6.70
2018-11-14T12:08:13.678Z,5.27
2018-11-14T12:10:42.560Z,8.97
2018-11-14T12:13:11.257Z,8.00
2018-11-14T12:15:40.053Z,7.97
2018-11-14T12:18:08.851Z,7.33
2018-11-14T12:20:37.639Z,7.67
2018-11-14T12:23:06.427Z,6.93
2018-11-14T12:25:35.286Z,7.30
2018-11-14T12:28:04.178Z,7.23
2018-11-14T12:30:32.977Z,5.87
2018-11-14T12:33:01.614Z,5.07
2018-11-14T12:35:30.452Z,5.53
2018-11-14T12:37:59.176Z,9.30
2018-11-14T12:40:27.898Z,8.20
2018-11-14T12:42:56.720Z,8.33
2018-11-14T12:45:25.478Z,8.93
2018-11-14T12:47:54.199Z,9.63
2018-11-14T12:50:23.658Z,7.87
2018-11-14T12:52:52.505Z,9.30
2018-11-14T12:55:21.192Z,7.63
2018-11-14T12:57:50.354Z,7.17
2018-11-14T13:00:20.313Z,9.57
2018-11-14T13:02:49.004Z,5.83
2018-11-14T13:05:17.814Z,5.10
2018-11-14T13:07:46.772Z,7.70
2018-11-14T13:10:16.803Z,7.20
2018-11-14T13:12:46.453Z,7.33
2018-11-14T13:15:16.094Z,6.83
2018-11-14T13:17:45.077Z,6.27
2018-11-14T13:20:16.166Z,7.03
2018-11-14T13:22:48.124Z,8.63
2018-11-14T13:25:17.020Z,6.93
2018-11-14T13:27:46.934Z,6.17
2018-11-14T13:30:16.971Z,9.70
2018-11-14T13:32:46.428Z,5.13
2018-11-14T13:35:16.382Z,8.57
2018-11-14T13:37:46.035Z,4.77
2018-11-14T13:40:14.815Z,8.23
2018-11-14T13:42:43.730Z,6.33
2018-11-14T13:45:16.215Z,5.87
2018-11-14T13:47:45.006Z,7.47
2018-11-14T13:50:18.953Z,3.73
2018-11-14T13:52:47.666Z,3.97
2018-11-14T13:55:18.668Z,4.93
2018-11-14T13:57:48.428Z,5.80
2018-11-14T14:00:18.197Z,6.00
2018-11-14T14:02:47.349Z,6.70
2018-11-14T14:05:17.374Z,4.70
2018-11-14T14:07:46.112Z,5.23
2018-11-14T14:10:16.679Z,6.33
2018-11-14T14:12:47.587Z,5.57
2018-11-14T14:15:18.668Z,6.87
2018-11-14T14:17:48.140Z,6.07
2018-11-14T14:20:17.415Z,6.00
2018-11-14T14:22:46.174Z,6.47
2018-11-14T14:25:16.169Z,5.97
2018-11-14T14:27:44.966Z,5.60
2018-11-14T14:30:21.937Z,5.33
2018-11-14T14:32:50.633Z,4.90
2018-11-14T14:35:20.491Z,4.10
2018-11-14T14:37:49.345Z,6.90
2018-11-14T14:40:20.232Z,3.73
2018-11-14T14:42:48.974Z,4.13
2018-11-14T14:45:25.388Z,8.80
2018-11-14T14:47:54.101Z,5.10
2018-11-14T14:50:22.936Z,7.37
2018-11-14T14:52:51.560Z,8.17
2018-11-14T14:55:22.076Z,2.53
2018-11-14T14:57:50.815Z,6.33
2018-11-14T15:00:23.753Z,6.67
2018-11-14T15:02:52.363Z,5.63
2018-11-14T15:05:20.990Z,3.93
2018-11-14T15:07:49.633Z,4.47
2018-11-14T15:10:20.407Z,6.53
2018-11-14T15:12:49.121Z,5.60
2018-11-14T15:15:18.537Z,3.80
2018-11-14T15:17:47.222Z,5.73
2018-11-14T15:20:19.278Z,6.57
2018-11-14T15:22:48.014Z,6.67
2018-11-14T15:25:18.516Z,7.50
2018-11-14T15:27:47.522Z,8.43
2018-11-14T15:30:19.216Z,5.20
2018-11-14T15:32:47.802Z,8.37
2018-11-14T15:35:16.783Z,6.20
2018-11-14T15:37:45.369Z,6.57
2018-11-14T15:40:15.383Z,7.93
2018-11-14T15:42:44.133Z,9.83
2018-11-14T15:45:17.837Z,11.33
2018-11-14T15:47:47.250Z,8.73
2018-11-14T15:50:20.097Z,8.87
2018-11-14T15:52:49.438Z,7.23
2018-11-14T15:55:19.031Z,8.53
2018-11-14T15:57:47.857Z,10.83
2018-11-14T16:00:20.224Z,6.00
2018-11-14T16:02:48.877Z,8.10
2018-11-14T16:05:19.933Z,8.70
2018-11-14T16:07:50.080Z,7.90
2018-11-14T16:10:20.654Z,6.10
2018-11-14T16:12:49.475Z,9.83
2018-11-14T16:15:20.504Z,6.63
2018-11-14T16:17:49.345Z,5.73
2018-11-14T16:20:19.655Z,9.60
2018-11-14T16:22:48.591Z,12.60
2018-11-14T16:25:19.178Z,6.77
2018-11-14T16:27:48.856Z,11.23
2018-11-14T16:30:22.931Z,7.73
2018-11-14T16:32:52.840Z,10.90
2018-11-14T16:35:21.616Z,7.03
2018-11-14T16:37:55.002Z,6.50
2018-11-14T16:40:30.237Z,8.80
2018-11-14T16:43:00.481Z,6.37
2018-11-14T16:45:30.354Z,7.53
2018-11-14T16:48:00.599Z,7.23
2018-11-14T16:50:29.535Z,8.87
2018-11-14T16:52:58.580Z,8.70
2018-11-14T16:55:27.406Z,9.77
2018-11-14T16:57:56.938Z,9.60
2018-11-14T17:00:29.008Z,7.63
2018-11-14T17:02:58.567Z,5.73
2018-11-14T17:05:29.957Z,11.63
2018-11-14T17:08:05.091Z,7.57
2018-11-14T17:10:34.031Z,10.13
2018-11-14T17:13:04.405Z,10.47
2018-11-14T17:15:33.939Z,12.10
2018-11-14T17:18:02.693Z,11.73
2018-11-14T17:20:31.483Z,7.53
2018-11-14T17:23:00.350Z,7.30
2018-11-14T17:25:29.335Z,14.03
2018-11-14T17:27:58.117Z,7.20
2018-11-14T17:30:27.779Z,10.70
2018-11-14T17:32:56.573Z,7.73
2018-11-14T17:35:25.323Z,7.73
2018-11-14T17:37:54.037Z,9.53
2018-11-14T17:40:25.512Z,9.57
2018-11-14T17:42:54.637Z,8.33
2018-11-14T17:45:25.525Z,10.77
2018-11-14T17:47:54.691Z,8.77
2018-11-14T17:50:26.283Z,7.80
2018-11-14T17:52:55.824Z,11.60
2018-11-14T17:55:25.217Z,9.23
2018-11-14T17:57:54.108Z,9.67
2018-11-14T18:00:24.380Z,8.57
2018-11-14T18:02:53.312Z,6.93
2018-11-14T18:05:24.413Z,12.63
2018-11-14T18:07:53.950Z,8.20
2018-11-14T18:10:24.193Z,10.07
2018-11-14T18:13:00.985Z,10.93
2018-11-14T18:15:30.271Z,10.90
2018-11-14T18:17:59.808Z,9.73
2018-11-14T18:20:30.241Z,12.70
2018-11-14T18:23:00.357Z,7.73
2018-11-14T18:25:45.256Z,11.33
2018-11-14T18:28:31.109Z,8.77
2018-11-14T18:31:02.398Z,8.87
2018-11-14T18:33:32.476Z,7.57
2018-11-14T18:36:07.420Z,11.53
2018-11-14T18:38:37.073Z,8.87
2018-11-14T18:41:06.911Z,9.33
2018-11-14T18:43:35.738Z,7.57
2018-11-14T18:46:04.798Z,9.67
2018-11-14T18:48:34.364Z,7.20
2018-11-14T18:51:03.515Z,8.40
2018-11-14T18:53:32.415Z,7.03
2018-11-14T18:56:01.363Z,10.23
2018-11-14T18:58:30.206Z,9.63
2018-11-14T19:00:59.673Z,9.93
2018-11-14T19:03:28.465Z,8.77
2018-11-14T19:05:57.268Z,11.83
2018-11-14T19:08:26.276Z,10.30
2018-11-14T19:10:56.107Z,9.50
2018-11-14T19:13:25.110Z,8.70
2018-11-14T19:15:55.292Z,8.83
2018-11-14T19:18:25.463Z,10.17
2018-11-14T19:20:54.423Z,9.40
2018-11-14T19:23:23.441Z,10.57
2018-11-14T19:25:52.379Z,11.93
2018-11-14T19:28:21.862Z,11.20
2018-11-14T19:30:50.872Z,10.47
2018-11-14T19:33:19.606Z,12.17
2018-11-14T19:35:48.601Z,11.40
2018-11-14T19:38:22.240Z,11.23
2018-11-14T19:40:55.427Z,9.70
2018-11-14T19:43:24.879Z,8.87
2018-11-14T19:45:54.877Z,10.53
2018-11-14T19:48:24.010Z,8.00
2018-11-14T19:50:53.185Z,10.00
2018-11-14T19:53:23.483Z,10.87
2018-11-14T19:55:56.915Z,10.67
2018-11-14T19:58:25.872Z,7.97
2018-11-14T20:00:54.846Z,10.00
2018-11-14T20:03:23.712Z,11.77
2018-11-14T20:05:52.650Z,9.33
2018-11-14T20:08:23.177Z,15.07
2018-11-14T20:10:52.213Z,10.17
2018-11-14T20:13:22.337Z,10.83
2018-11-14T20:15:51.429Z,11.10
2018-11-14T20:18:20.460Z,13.03
2018-11-14T20:20:49.539Z,12.33
2018-11-14T20:23:18.980Z,14.27
2018-11-14T20:25:50.091Z,15.73
2018-11-14T20:28:19.138Z,11.43
2018-11-14T20:30:48.282Z,13.40
2018-11-14T20:33:17.249Z,13.83
2018-11-14T20:35:46.530Z,14.50
2018-11-14T20:38:15.670Z,17.13
2018-11-14T20:40:44.673Z,17.27
2018-11-14T20:43:14.123Z,13.40
2018-11-14T20:45:44.789Z,13.90
2018-11-14T20:48:13.607Z,17.40
2018-11-14T20:50:43.024Z,12.63
2018-11-14T20:53:13.988Z,13.80
2018-11-14T20:55:44.108Z,13.40
2018-11-14T20:58:14.685Z,17.37
2018-11-14T21:00:44.770Z,16.93
2018-11-14T21:03:18.430Z,14.53
2018-11-14T21:05:48.639Z,15.67
2018-11-14T21:08:18.230Z,15.83
2018-11-14T21:10:49.297Z,16.63
2018-11-14T21:13:18.276Z,17.10
2018-11-14T21:15:47.296Z,18.87
2018-11-14T21:18:16.476Z,14.00
2018-11-14T21:20:45.552Z,14.73
2018-11-14T21:23:18.339Z,13.60
2018-11-14T21:25:47.701Z,15.20
2018-11-14T21:28:16.745Z,12.87
2018-11-14T21:30:46.315Z,15.43
2018-11-14T21:33:15.281Z,14.40
2018-11-14T21:35:44.520Z,15.13
2018-11-14T21:38:13.466Z,14.73
2018-11-14T21:40:42.805Z,12.80
2018-11-14T21:43:11.801Z,13.97
2018-11-14T21:45:41.970Z,16.47
2018-11-14T21:48:13.289Z,13.20
2018-11-14T21:50:42.360Z,15.33
2018-11-14T21:53:11.293Z,13.07
2018-11-14T21:55:40.106Z,14.63
2018-11-14T21:58:10.086Z,11.53
2018-11-14T22:00:40.043Z,12.57
2018-11-14T22:03:09.760Z,16.13
2018-11-14T22:05:38.927Z,14.47
2018-11-14T22:08:07.820Z,15.80
2018-11-14T22:10:36.967Z,13.83
2018-11-14T22:13:07.899Z,14.53
2018-11-14T22:15:43.529Z,12.73
2018-11-14T22:18:12.489Z,15.07
2018-11-14T22:20:41.368Z,14.50
2018-11-14T22:23:10.290Z,16.17
2018-11-14T22:25:39.202Z,13.60
2018-11-14T22:28:08.197Z,13.00
2018-11-14T22:30:36.953Z,12.87
2018-11-14T22:33:05.865Z,12.90
2018-11-14T22:35:34.587Z,13.23
2018-11-14T22:38:05.054Z,16.50
2018-11-14T22:40:34.067Z,14.70
2018-11-14T22:43:02.917Z,16.77
2018-11-14T22:45:32.864Z,15.07
2018-11-14T22:48:01.955Z,17.80
2018-11-14T22:50:31.170Z,14.70
2018-11-14T22:52:59.943Z,16.43
2018-11-14T22:55:29.758Z,18.20
2018-11-14T22:57:58.531Z,13.93
2018-11-14T23:00:42.007Z,13.97
2018-11-14T23:03:11.113Z,16.47
2018-11-14T23:05:39.990Z,13.80
2018-11-14T23:08:08.783Z,14.57
2018-11-14T23:10:38.305Z,13.90
2018-11-14T23:13:07.942Z,12.23
2018-11-14T23:15:36.752Z,15.30
2018-11-14T23:18:05.888Z,15.57
2018-11-14T23:20:39.278Z,11.20
2018-11-14T23:23:08.140Z,14.23
2018-11-14T23:25:38.473Z,10.97
2018-11-14T23:28:07.461Z,14.90
2018-11-14T23:30:36.231Z,12.13
2018-11-14T23:33:06.010Z,10.60
2018-11-14T23:35:35.487Z,12.70
2018-11-14T23:38:09.459Z,12.63
2018-11-14T23:40:42.474Z,16.57
2018-11-14T23:43:11.837Z,11.03
2018-11-14T23:45:41.490Z,13.93
2018-11-14T23:48:10.363Z,11.60
2018-11-14T23:50:39.757Z,13.40
2018-11-14T23:53:09.287Z,15.53
2018-11-14T23:55:38.322Z,14.70
2018-11-14T23:58:08.382Z,13.07
